Time;durP1;ratioP1;P1;durP2;ratioP2;P2;SDS_P1;SDS_P2;PMS_P1;PMS_P2;Temp;Humidity;BMP_temperature;BMP_pressure;BME280_temperature;BME280_humidity;BME280_pressure;Samples;Min_cycle;Max_cycle;Signal;HPM_P1;HPM_P2
2021/12/18 00:01:53;;;;;;;13.70;11.20;;;6.70;1.00;;;;;;5075110;28;20719;-89
2021/12/18 00:04:20;;;;;;;13.33;10.77;;;6.70;1.00;;;;;;5074725;28;20287;-85
2021/12/18 00:06:48;;;;;;;10.73;8.37;;;6.90;1.00;;;;;;5074661;28;20248;-85
2021/12/18 00:09:15;;;;;;;12.17;9.17;;;7.40;1.00;;;;;;5074974;28;20734;-86
2021/12/18 00:11:42;;;;;;;14.67;9.07;;;7.60;1.00;;;;;;5074907;28;20243;-82
2021/12/18 00:14:09;;;;;;;12.27;9.23;;;7.50;1.00;;;;;;5074299;28;20206;-81
2021/12/18 00:16:36;;;;;;;19.67;11.27;;;7.40;1.00;;;;;;5073758;28;20202;-81
2021/12/18 00:19:04;;;;;;;11.87;9.97;;;7.20;1.00;;;;;;5074029;28;20199;-81
2021/12/18 00:21:31;;;;;;;14.03;9.57;;;7.10;1.00;;;;;;5073412;28;20209;-80
2021/12/18 00:23:59;;;;;;;15.70;10.10;;;7.10;1.00;;;;;;5073391;28;20698;-80
2021/12/18 00:26:26;;;;;;;21.10;10.07;;;7.00;1.00;;;;;;5073045;28;20661;-77
2021/12/18 00:28:53;;;;;;;11.10;9.97;;;7.10;1.00;;;;;;5073106;28;20245;-80
2021/12/18 00:31:20;;;;;;;13.60;9.00;;;6.90;1.00;;;;;;5073196;28;20241;-79
2021/12/18 00:33:47;;;;;;;12.03;9.97;;;7.20;1.00;;;;;;5073378;28;20739;-72
2021/12/18 00:36:14;;;;;;;12.10;10.10;;;7.00;1.00;;;;;;5073653;28;20624;-79
2021/12/18 00:38:42;;;;;;;12.80;9.73;;;6.90;1.00;;;;;;5073614;28;20570;-78
2021/12/18 00:41:28;;;;;;;14.70;9.70;;;7.30;1.00;;;;;;5073012;28;20241;-78
2021/12/18 00:44:04;;;;;;;13.50;10.93;;;7.10;1.00;;;;;;5073159;28;20238;-79
2021/12/18 00:46:33;;;;;;;16.97;11.60;;;7.30;1.00;;;;;;5072667;28;20206;-80
2021/12/18 00:49:01;;;;;;;12.67;9.77;;;7.00;1.00;;;;;;5073624;28;20202;-75
2021/12/18 00:51:28;;;;;;;13.90;10.40;;;6.90;1.00;;;;;;5073219;28;20206;-76
2021/12/18 00:53:55;;;;;;;13.40;10.50;;;6.70;1.00;;;;;;5073548;28;20283;-79
2021/12/18 00:56:24;;;;;;;14.27;10.10;;;6.60;1.00;;;;;;5073065;28;20203;-80
2021/12/18 00:58:51;;;;;;;12.60;11.17;;;6.50;1.00;;;;;;5073357;28;20225;-78
2021/12/18 01:01:19;;;;;;;16.33;10.43;;;6.40;1.00;;;;;;5073060;28;20206;-74
2021/12/18 01:03:47;;;;;;;22.77;13.60;;;6.30;1.00;;;;;;5073222;28;20285;-78
2021/12/18 01:06:14;;;;;;;10.43;8.30;;;6.30;1.00;;;;;;5073292;28;20301;-68
2021/12/18 01:08:42;;;;;;;13.03;10.90;;;6.60;1.00;;;;;;5073916;28;20577;-79
2021/12/18 01:11:30;;;;;;;14.07;11.70;;;6.40;1.00;;;;;;5073225;28;20293;-84
2021/12/18 01:14:16;;;;;;;16.80;11.00;;;6.40;1.00;;;;;;5073136;28;20210;-83
2021/12/18 01:16:51;;;;;;;12.33;10.57;;;6.20;1.00;;;;;;5073486;28;20208;-81
2021/12/18 01:24:44;;;;;;;15.57;10.97;;;5.90;1.00;;;;;;5072686;28;20278;-68
2021/12/18 01:27:11;;;;;;;11.23;9.77;;;5.90;1.00;;;;;;5072995;28;20636;-81
2021/12/18 01:29:40;;;;;;;13.30;10.03;;;5.80;1.00;;;;;;5072060;28;20666;-81
2021/12/18 01:32:08;;;;;;;13.43;10.67;;;5.80;1.00;;;;;;5072414;28;20723;-82
2021/12/18 01:34:35;;;;;;;12.07;10.70;;;5.80;1.00;;;;;;5072834;28;20236;-86
2021/12/18 01:37:03;;;;;;;13.70;10.93;;;5.80;1.00;;;;;;5073000;28;20202;-79
2021/12/18 01:39:30;;;;;;;14.07;9.93;;;5.70;1.00;;;;;;5072339;28;20201;-82
2021/12/18 01:42:18;;;;;;;16.87;9.70;;;5.60;1.00;;;;;;5072698;28;20199;-83
2021/12/18 01:45:00;;;;;;;13.23;11.07;;;5.60;1.00;;;;;;5072213;28;20266;-74
2021/12/18 01:52:57;;;;;;;10.70;9.60;;;5.50;1.00;;;;;;5071812;28;20237;-77
2021/12/18 01:55:28;;;;;;;13.97;11.23;;;5.40;1.00;;;;;;5071307;28;20252;-79
2021/12/18 01:57:55;;;;;;;11.73;9.87;;;5.40;1.00;;;;;;5071688;28;20212;-79
2021/12/18 02:00:26;;;;;;;13.00;10.30;;;5.40;1.00;;;;;;5071204;28;20198;-78
2021/12/18 02:02:53;;;;;;;13.60;11.10;;;5.40;1.00;;;;;;5071698;28;20202;-79
2021/12/18 02:05:20;;;;;;;15.43;10.90;;;5.40;1.00;;;;;;5070309;28;20229;-72
2021/12/18 02:07:48;;;;;;;12.67;10.27;;;5.30;1.00;;;;;;5072439;28;20248;-84
2021/12/18 02:10:19;;;;;;;15.00;11.17;;;5.30;1.00;;;;;;5072423;28;20259;-79
2021/12/18 02:12:48;;;;;;;11.43;9.13;;;5.40;3.20;;;;;;5078081;28;20294;-83
2021/12/18 02:20:46;;;;;;;12.57;10.93;;;5.20;1.00;;;;;;5071587;28;20301;-80
2021/12/18 02:23:13;;;;;;;15.47;11.43;;;5.20;1.00;;;;;;5071655;28;20202;-79
2021/12/18 02:25:41;;;;;;;12.93;11.07;;;5.20;1.00;;;;;;5071310;28;20245;-79
2021/12/18 02:28:16;;;;;;;13.50;10.57;;;5.20;1.00;;;;;;5071576;28;20198;-82
2021/12/18 02:30:44;;;;;;;10.97;9.43;;;5.10;1.00;;;;;;5072133;28;20249;-81
2021/12/18 02:33:11;;;;;;;15.93;11.60;;;5.10;1.00;;;;;;5072042;28;20259;-84
2021/12/18 02:35:44;;;;;;;17.70;12.03;;;5.10;1.00;;;;;;5071300;28;20252;-86
2021/12/18 02:38:19;;;;;;;12.90;10.03;;;5.30;64.90;;;;;;5071635;28;20201;-85
2021/12/18 02:40:58;;;;;;;13.07;11.40;;;5.30;24.70;;;;;;5071861;28;20237;-79
2021/12/18 02:43:26;;;;;;;15.63;10.23;;;5.20;6.60;;;;;;5071462;28;20272;-86
2021/12/18 02:45:58;;;;;;;13.77;11.23;;;5.10;1.00;;;;;;5071847;28;20308;-86
2021/12/18 02:48:25;;;;;;;15.67;11.63;;;5.00;1.00;;;;;;5071226;28;20206;-76
2021/12/18 02:50:52;;;;;;;19.07;11.63;;;5.10;1.00;;;;;;5071281;28;20241;-81
2021/12/18 02:53:21;;;;;;;17.00;12.23;;;5.00;1.00;;;;;;5070534;28;20256;-82
2021/12/18 02:55:54;;;;;;;16.17;11.97;;;5.00;1.00;;;;;;5071266;28;20209;-82
2021/12/18 02:58:21;;;;;;;12.50;10.10;;;5.00;1.00;;;;;;5070531;28;20256;-81
2021/12/18 03:00:49;;;;;;;16.40;11.13;;;4.90;1.00;;;;;;5071275;28;20248;-81
2021/12/18 03:03:16;;;;;;;13.17;11.20;;;4.90;1.00;;;;;;5070885;28;20210;-69
2021/12/18 03:05:52;;;;;;;14.53;11.10;;;4.90;1.00;;;;;;5071221;28;20265;-81
2021/12/18 03:08:34;;;;;;;16.47;12.43;;;4.90;1.00;;;;;;5070260;28;20616;-81
2021/12/18 03:24:55;;;;;;;14.17;11.40;;;4.70;1.00;;;;;;5075426;28;20230;-82
2021/12/18 03:27:22;;;;;;;22.27;12.57;;;4.70;1.00;;;;;;5077033;28;20198;-82
2021/12/18 03:29:49;;;;;;;19.87;13.57;;;4.70;1.00;;;;;;5074970;28;20594;-87
2021/12/18 03:32:17;;;;;;;19.73;13.43;;;4.70;1.00;;;;;;5074343;28;20605;-74
2021/12/18 03:34:44;;;;;;;16.30;12.43;;;4.60;1.00;;;;;;5074781;28;20225;-78
2021/12/18 03:37:11;;;;;;;15.10;11.73;;;4.60;1.00;;;;;;5074474;28;20665;-75
2021/12/18 03:39:38;;;;;;;15.67;12.00;;;4.50;1.00;;;;;;5073816;28;20809;-72
2021/12/18 03:42:07;;;;;;;15.93;11.63;;;4.40;1.00;;;;;;5074300;28;20665;-73
2021/12/18 03:44:35;;;;;;;15.40;12.10;;;4.50;1.00;;;;;;5073794;28;20241;-75
2021/12/18 03:47:03;;;;;;;14.50;12.13;;;4.40;1.00;;;;;;5074175;28;20206;-73
2021/12/18 03:49:30;;;;;;;18.50;12.30;;;4.50;1.00;;;;;;5074065;28;20210;-75
2021/12/18 03:51:57;;;;;;;20.17;14.03;;;4.40;1.00;;;;;;5073934;28;20202;-76
2021/12/18 03:54:24;;;;;;;14.77;11.33;;;4.40;1.00;;;;;;5073706;28;20261;-78
2021/12/18 03:56:51;;;;;;;15.90;12.53;;;4.40;1.00;;;;;;5074055;28;20202;-77
2021/12/18 03:59:20;;;;;;;17.77;11.70;;;4.30;1.00;;;;;;5073612;28;20647;-78
2021/12/18 04:01:47;;;;;;;15.63;13.20;;;4.30;1.00;;;;;;5074127;28;20214;-77
2021/12/18 04:04:14;;;;;;;13.43;11.77;;;4.20;1.00;;;;;;5067583;28;20203;-72
2021/12/18 04:06:42;;;;;;;16.60;12.97;;;4.20;1.00;;;;;;5055834;28;20203;-78
2021/12/18 04:09:11;;;;;;;17.20;14.97;;;4.20;1.00;;;;;;5073709;28;20216;-78
2021/12/18 04:11:38;;;;;;;22.97;16.23;;;4.10;1.00;;;;;;5067093;28;20224;-78
2021/12/18 04:14:05;;;;;;;20.93;15.13;;;4.20;1.00;;;;;;5073627;28;20666;-76
2021/12/18 04:16:34;;;;;;;23.00;15.90;;;4.10;1.00;;;;;;5073197;28;20214;-78
2021/12/18 04:19:01;;;;;;;19.77;14.67;;;4.10;1.00;;;;;;5073737;28;20253;-78
2021/12/18 04:21:29;;;;;;;17.33;14.10;;;4.10;1.00;;;;;;5073003;28;20734;-77
2021/12/18 04:23:56;;;;;;;15.50;13.40;;;4.00;1.00;;;;;;5073539;28;20247;-78
2021/12/18 04:26:23;;;;;;;18.87;15.20;;;4.10;1.00;;;;;;5073196;28;20276;-78
2021/12/18 04:28:50;;;;;;;20.13;16.03;;;4.00;1.00;;;;;;5072905;28;20260;-77
2021/12/18 04:31:17;;;;;;;17.90;14.73;;;4.00;1.00;;;;;;5073323;28;20202;-75
2021/12/18 04:33:46;;;;;;;20.77;16.40;;;4.00;1.00;;;;;;5073121;28;20669;-71
2021/12/18 04:36:13;;;;;;;22.70;16.70;;;3.90;1.00;;;;;;5073668;28;20237;-76
2021/12/18 04:38:40;;;;;;;18.70;13.97;;;4.00;1.00;;;;;;5073107;28;20206;-76
2021/12/18 04:41:09;;;;;;;21.90;14.63;;;3.90;1.00;;;;;;5073337;28;20206;-76
2021/12/18 04:43:36;;;;;;;22.73;15.63;;;3.90;1.00;;;;;;5072459;28;20218;-75
2021/12/18 04:46:03;;;;;;;21.03;13.90;;;3.90;1.00;;;;;;5073144;28;20298;-76
2021/12/18 04:48:30;;;;;;;17.03;14.43;;;3.80;1.00;;;;;;5072430;28;20611;-74
2021/12/18 04:50:59;;;;;;;20.07;14.73;;;3.80;1.00;;;;;;5072964;28;20397;-76
2021/12/18 04:53:26;;;;;;;17.10;15.20;;;3.90;1.00;;;;;;5072362;28;20744;-75
2021/12/18 04:55:53;;;;;;;18.13;13.83;;;3.90;1.00;;;;;;5073128;28;20210;-76
2021/12/18 04:58:20;;;;;;;22.07;15.00;;;3.90;1.00;;;;;;5072587;28;20271;-74
2021/12/18 05:00:47;;;;;;;22.43;16.47;;;3.90;1.00;;;;;;5072933;28;20206;-76
2021/12/18 05:03:17;;;;;;;17.20;15.00;;;3.80;1.00;;;;;;5071389;28;20293;-69
2021/12/18 05:05:44;;;;;;;17.90;14.17;;;3.80;1.00;;;;;;5072877;28;20292;-70
2021/12/18 05:08:13;;;;;;;23.83;14.57;;;3.70;1.00;;;;;;5073023;28;20206;-76
2021/12/18 05:10:40;;;;;;;18.20;14.03;;;3.70;1.00;;;;;;5072877;28;20218;-77
2021/12/18 05:13:07;;;;;;;24.87;15.03;;;3.80;1.00;;;;;;5072600;28;20323;-76
2021/12/18 05:15:34;;;;;;;20.70;15.13;;;3.70;1.00;;;;;;5072176;28;20210;-77
2021/12/18 05:18:01;;;;;;;20.60;15.80;;;3.80;1.00;;;;;;5072309;28;20229;-73
2021/12/18 05:20:28;;;;;;;19.40;13.73;;;3.70;1.00;;;;;;5072025;28;20323;-74
2021/12/18 05:22:55;;;;;;;19.63;13.73;;;3.60;1.00;;;;;;5072613;28;20202;-78
2021/12/18 05:25:24;;;;;;;18.17;13.77;;;3.60;1.00;;;;;;5072023;28;20311;-78
2021/12/18 05:27:52;;;;;;;16.40;13.73;;;3.60;1.00;;;;;;5072099;28;20264;-77
2021/12/18 05:30:19;;;;;;;18.80;14.50;;;3.60;1.00;;;;;;5071971;28;20202;-75
2021/12/18 05:32:46;;;;;;;20.50;14.93;;;3.60;1.00;;;;;;5072097;28;20543;-78
2021/12/18 05:35:15;;;;;;;15.13;12.33;;;3.60;1.00;;;;;;5072673;28;20206;-75
2021/12/18 05:37:48;;;;;;;16.30;13.10;;;3.60;1.00;;;;;;5072520;28;20319;-74
2021/12/18 05:40:18;;;;;;;17.57;12.63;;;3.60;1.00;;;;;;5070801;28;20552;-74
2021/12/18 05:42:47;;;;;;;20.03;14.10;;;3.60;1.00;;;;;;5071965;28;20231;-73
2021/12/18 05:45:14;;;;;;;20.87;14.27;;;3.60;1.00;;;;;;5072046;28;20697;-76
2021/12/18 05:47:43;;;;;;;19.43;12.90;;;3.50;1.00;;;;;;5072322;28;20198;-77
2021/12/18 05:50:11;;;;;;;17.97;13.83;;;3.40;1.00;;;;;;5072322;28;20213;-76
2021/12/18 05:52:38;;;;;;;20.17;15.20;;;3.40;1.00;;;;;;5071693;28;20202;-76
2021/12/18 05:55:06;;;;;;;16.70;13.10;;;3.30;1.00;;;;;;5071847;28;20213;-77
2021/12/18 05:57:33;;;;;;;21.70;15.73;;;3.40;1.00;;;;;;5071326;28;20727;-75
2021/12/18 06:00:01;;;;;;;17.80;14.70;;;3.30;1.00;;;;;;5071419;28;20291;-74
2021/12/18 06:02:28;;;;;;;19.63;14.93;;;3.20;1.00;;;;;;5071104;28;20210;-74
2021/12/18 06:04:55;;;;;;;19.47;14.83;;;3.20;1.00;;;;;;5071521;28;20198;-74
2021/12/18 06:07:31;;;;;;;27.03;16.17;;;3.20;1.00;;;;;;5071221;28;20285;-75
2021/12/18 06:09:59;;;;;;;19.50;15.40;;;3.20;1.00;;;;;;5071370;28;20213;-75
2021/12/18 06:12:26;;;;;;;30.93;16.87;;;3.30;1.00;;;;;;5070898;28;20283;-75
2021/12/18 06:14:54;;;;;;;23.60;15.83;;;3.30;1.00;;;;;;5071544;28;20252;-75
2021/12/18 06:17:22;;;;;;;22.53;16.17;;;3.20;1.00;;;;;;5070746;28;20202;-75
2021/12/18 06:19:49;;;;;;;26.03;16.03;;;3.20;1.00;;;;;;5071382;28;20211;-75
2021/12/18 06:22:16;;;;;;;26.87;16.03;;;3.20;1.00;;;;;;5070897;28;20206;-68
2021/12/18 06:24:43;;;;;;;20.30;14.17;;;3.10;1.00;;;;;;5071476;28;20202;-74
2021/12/18 06:27:10;;;;;;;21.33;15.50;;;3.10;1.00;;;;;;5071668;28;20291;-76
2021/12/18 06:29:39;;;;;;;22.80;14.93;;;3.10;1.00;;;;;;5071004;28;20198;-77
2021/12/18 06:32:06;;;;;;;17.50;13.73;;;3.00;1.00;;;;;;5071136;28;20572;-77
2021/12/18 06:34:35;;;;;;;18.83;13.50;;;3.00;1.00;;;;;;5070698;28;20293;-76
2021/12/18 06:37:02;;;;;;;20.67;13.70;;;3.10;1.00;;;;;;5071071;28;20202;-77
2021/12/18 06:39:29;;;;;;;21.17;14.57;;;3.10;1.00;;;;;;5070544;28;20263;-75
2021/12/18 06:41:56;;;;;;;19.50;15.07;;;3.00;1.00;;;;;;5065407;28;20199;-75
2021/12/18 06:44:23;;;;;;;19.23;11.63;;;3.00;1.00;;;;;;5062631;28;20206;-74
2021/12/18 06:46:50;;;;;;;19.13;12.80;;;3.00;1.00;;;;;;5062379;28;20291;-76
2021/12/18 06:49:17;;;;;;;14.70;11.83;;;3.00;1.00;;;;;;5070636;28;20250;-73
2021/12/18 06:51:46;;;;;;;19.23;13.53;;;3.10;1.00;;;;;;5070414;28;20206;-71
2021/12/18 06:54:13;;;;;;;17.80;13.80;;;3.00;1.00;;;;;;5061733;28;20268;-74
2021/12/18 06:56:40;;;;;;;20.53;16.17;;;3.00;1.00;;;;;;5050890;28;20222;-76
2021/12/18 06:59:07;;;;;;;16.63;13.33;;;2.90;1.00;;;;;;5058464;28;20674;-89
2021/12/18 07:01:36;;;;;;;14.93;11.47;;;2.80;1.00;;;;;;5060248;28;20209;-81
2021/12/18 07:04:03;;;;;;;15.00;11.77;;;2.80;1.00;;;;;;5063195;28;20206;-79
2021/12/18 07:06:30;;;;;;;16.53;11.53;;;2.80;1.00;;;;;;5058793;28;20294;-78
2021/12/18 07:08:58;;;;;;;15.53;11.50;;;2.70;1.00;;;;;;5050743;28;20252;-71
2021/12/18 07:11:25;;;;;;;17.23;12.07;;;2.90;1.00;;;;;;5050427;28;20203;-69
2021/12/18 07:13:52;;;;;;;19.87;13.83;;;2.90;1.00;;;;;;5058515;28;20206;-69
2021/12/18 07:16:19;;;;;;;17.23;13.27;;;2.90;1.00;;;;;;5054578;28;20211;-70
2021/12/18 07:18:46;;;;;;;17.40;13.47;;;2.90;1.00;;;;;;5066942;28;20222;-68
2021/12/18 07:21:13;;;;;;;17.60;13.37;;;2.70;1.00;;;;;;5070798;28;20206;-70
2021/12/18 07:23:41;;;;;;;20.30;14.03;;;2.80;1.00;;;;;;5050504;28;20582;-68
2021/12/18 07:26:09;;;;;;;16.33;13.83;;;2.90;1.00;;;;;;5050669;28;20643;-69
2021/12/18 07:28:36;;;;;;;19.63;14.63;;;2.80;1.00;;;;;;5068868;28;20198;-69
2021/12/18 07:31:03;;;;;;;22.03;13.90;;;2.70;1.00;;;;;;5076261;28;20266;-71
2021/12/18 07:33:30;;;;;;;24.33;15.13;;;2.60;1.00;;;;;;5075461;28;20202;-69
2021/12/18 07:35:58;;;;;;;23.40;16.87;;;2.60;1.00;;;;;;5090231;28;20741;-70
2021/12/18 07:38:24;;;;;;;26.10;17.20;;;2.60;1.00;;;;;;5089406;28;20194;-69
2021/12/18 07:40:51;;;;;;;19.00;15.53;;;2.60;1.00;;;;;;5090240;28;20201;-70
2021/12/18 07:43:20;;;;;;;19.83;14.70;;;2.60;1.00;;;;;;5081914;28;20206;-70
2021/12/18 07:45:47;;;;;;;21.13;15.53;;;2.80;1.00;;;;;;5077839;28;20218;-70
2021/12/18 07:48:14;;;;;;;18.77;15.10;;;2.80;1.00;;;;;;5061435;28;20210;-70
2021/12/18 07:50:41;;;;;;;19.53;13.70;;;2.80;1.00;;;;;;5062043;28;20211;-71
2021/12/18 07:53:08;;;;;;;18.10;13.57;;;2.90;1.00;;;;;;5067401;28;20259;-69
2021/12/18 07:55:35;;;;;;;17.63;12.77;;;2.90;1.00;;;;;;5051519;28;20263;-67
2021/12/18 07:58:02;;;;;;;19.23;13.60;;;2.90;1.00;;;;;;5059321;28;20244;-69
2021/12/18 08:00:30;;;;;;;21.23;14.13;;;3.10;1.00;;;;;;5054785;28;20203;-65
2021/12/18 08:02:57;;;;;;;17.57;13.13;;;3.20;1.00;;;;;;5062323;28;20685;-70
2021/12/18 08:05:24;;;;;;;20.47;13.27;;;3.10;1.00;;;;;;5071252;28;20198;-71
2021/12/18 08:07:51;;;;;;;18.80;14.60;;;3.20;1.00;;;;;;5073169;28;20213;-69
2021/12/18 08:10:18;;;;;;;18.93;13.80;;;3.10;1.00;;;;;;5072437;28;20199;-69
2021/12/18 08:12:45;;;;;;;20.37;12.47;;;3.00;1.00;;;;;;5072680;28;20253;-71
2021/12/18 08:15:13;;;;;;;16.70;13.13;;;3.00;1.00;;;;;;5065657;28;20206;-71
2021/12/18 08:17:41;;;;;;;13.70;12.30;;;3.10;1.00;;;;;;5061300;28;20273;-71
2021/12/18 08:20:10;;;;;;;15.80;14.13;;;3.50;1.00;;;;;;5067983;28;20206;-73
2021/12/18 08:22:37;;;;;;;20.17;13.53;;;3.40;1.00;;;;;;5073137;28;20259;-71
2021/12/18 08:25:05;;;;;;;15.67;12.37;;;3.60;1.00;;;;;;5086549;28;20213;-68
2021/12/18 08:27:32;;;;;;;19.03;14.17;;;4.00;1.00;;;;;;5074012;28;20238;-71
2021/12/18 08:29:59;;;;;;;15.47;11.87;;;4.40;1.00;;;;;;5067358;28;20675;-72
2021/12/18 08:32:26;;;;;;;17.67;13.03;;;4.50;1.00;;;;;;5054193;28;20195;-69
2021/12/18 08:34:54;;;;;;;15.10;12.23;;;5.40;1.00;;;;;;5077207;28;20618;-72
2021/12/18 08:37:21;;;;;;;16.17;12.83;;;6.20;1.00;;;;;;5070478;28;20248;-69
2021/12/18 08:39:48;;;;;;;15.67;10.83;;;6.50;1.00;;;;;;5056606;28;20210;-73
2021/12/18 08:42:16;;;;;;;13.73;12.07;;;7.70;1.00;;;;;;5055329;28;20211;-71
2021/12/18 08:44:43;;;;;;;14.90;11.87;;;7.70;1.00;;;;;;5053552;28;20214;-72
2021/12/18 08:47:10;;;;;;;14.37;11.67;;;7.40;1.00;;;;;;5057277;28;20238;-74
2021/12/18 08:49:38;;;;;;;17.13;12.63;;;6.60;1.00;;;;;;5071181;28;20241;-73
2021/12/18 08:52:07;;;;;;;18.73;13.13;;;6.20;1.00;;;;;;5055290;28;20221;-70
2021/12/18 08:54:34;;;;;;;17.33;13.27;;;5.80;1.00;;;;;;5055944;28;20207;-69
2021/12/18 08:57:01;;;;;;;15.27;11.90;;;6.10;1.00;;;;;;5062067;28;20210;-75
2021/12/18 08:59:28;;;;;;;16.00;12.30;;;6.50;1.00;;;;;;5073649;28;20211;-71
2021/12/18 09:01:55;;;;;;;17.83;11.63;;;7.80;1.00;;;;;;5053635;28;20557;-75
2021/12/18 09:04:22;;;;;;;13.17;11.87;;;8.00;1.00;;;;;;5076069;28;20201;-71
2021/12/18 09:06:49;;;;;;;12.70;10.37;;;8.20;1.00;;;;;;5075398;28;20234;-72
2021/12/18 09:09:17;;;;;;;14.80;11.57;;;8.60;1.00;;;;;;5071967;28;20202;-68
2021/12/18 09:11:44;;;;;;;14.90;12.30;;;8.60;1.00;;;;;;5065316;28;20207;-72
2021/12/18 09:14:11;;;;;;;14.90;11.80;;;8.80;1.00;;;;;;5056532;28;20746;-72
2021/12/18 09:16:39;;;;;;;13.60;11.67;;;8.70;1.00;;;;;;5056578;28;20735;-72
2021/12/18 09:19:06;;;;;;;16.33;12.37;;;7.90;1.00;;;;;;5060971;28;20678;-73
2021/12/18 09:21:33;;;;;;;14.60;11.57;;;8.50;1.00;;;;;;5067609;28;20254;-72
2021/12/18 09:24:00;;;;;;;15.10;10.73;;;9.50;1.00;;;;;;5065364;28;20249;-72
2021/12/18 09:26:28;;;;;;;14.33;11.20;;;9.70;1.00;;;;;;5057381;28;20226;-72
2021/12/18 09:28:55;;;;;;;14.13;11.70;;;11.30;1.00;;;;;;5071712;28;20198;-71
2021/12/18 09:31:24;;;;;;;12.57;11.27;;;11.10;1.00;;;;;;5069321;28;20628;-72
2021/12/18 09:33:51;;;;;;;17.20;12.07;;;12.30;1.00;;;;;;5071854;28;20206;-72
2021/12/18 09:36:18;;;;;;;12.97;11.40;;;12.10;1.00;;;;;;5063578;28;20256;-71
2021/12/18 09:38:45;;;;;;;15.50;11.33;;;12.80;1.00;;;;;;5067345;28;20203;-71
2021/12/18 09:41:13;;;;;;;13.03;10.87;;;11.70;1.00;;;;;;5067505;28;20211;-71
2021/12/18 09:43:41;;;;;;;14.03;12.53;;;12.50;1.00;;;;;;5055564;28;20268;-72
2021/12/18 09:46:13;;;;;;;13.43;12.07;;;12.80;1.00;;;;;;5056474;28;20246;-71
2021/12/18 09:48:41;;;;;;;16.07;11.43;;;11.60;1.00;;;;;;5062601;28;20267;-73
2021/12/18 09:51:13;;;;;;;15.53;12.70;;;11.50;1.00;;;;;;5057837;28;20616;-72
2021/12/18 09:53:41;;;;;;;14.15;10.73;;;11.20;1.00;;;;;;5060445;28;20215;-72
2021/12/18 09:56:08;;;;;;;12.60;10.68;;;11.50;1.00;;;;;;5056461;28;20214;-73
2021/12/18 09:58:35;;;;;;;13.88;11.82;;;12.40;1.00;;;;;;5057194;28;20219;-72
2021/12/18 10:01:04;;;;;;;13.70;11.48;;;13.50;1.00;;;;;;5070509;28;20256;-69
2021/12/18 10:03:49;;;;;;;11.70;10.50;;;14.60;1.00;;;;;;5070233;28;20210;-70
2021/12/18 10:06:36;;;;;;;11.85;10.20;;;16.10;99.90;;;;;;5066518;28;20206;-68
2021/12/18 10:09:06;;;;;;;12.00;10.80;;;16.20;99.90;;;;;;5062034;28;20206;-69
2021/12/18 10:11:33;;;;;;;11.85;10.50;;;16.20;99.90;;;;;;5066652;28;20207;-69
2021/12/18 10:14:02;;;;;;;11.63;10.43;;;16.20;99.90;;;;;;5068001;28;20629;-69
2021/12/18 10:16:32;;;;;;;13.70;10.57;;;14.20;99.90;;;;;;5060847;28;20299;-68
2021/12/18 10:19:00;;;;;;;11.60;10.40;;;16.50;99.90;;;;;;5069791;28;20214;-72
2021/12/18 10:21:29;;;;;;;14.30;11.80;;;16.40;99.90;;;;;;5069358;28;20240;-72
2021/12/18 10:23:58;;;;;;;13.57;11.60;;;17.10;99.90;;;;;;5068139;28;20662;-71
2021/12/18 10:26:38;;;;;;;13.40;12.10;;;17.10;99.90;;;;;;5063816;28;20612;-72
2021/12/18 10:29:07;;;;;;;13.65;11.93;;;16.30;99.90;;;;;;5069777;28;20233;-72
2021/12/18 10:31:44;;;;;;;16.02;11.90;;;17.70;99.90;;;;;;5059931;28;20202;-70
2021/12/18 10:34:16;;;;;;;12.38;10.57;;;17.20;99.90;;;;;;5091459;28;20198;-72
2021/12/18 10:37:03;;;;;;;14.98;11.15;;;13.90;99.90;;;;;;5079302;28;20275;-70
2021/12/18 10:39:30;;;;;;;13.80;12.20;;;16.10;99.90;;;;;;5067493;28;20210;-73
2021/12/18 10:41:57;;;;;;;12.52;11.23;;;15.30;99.90;;;;;;5070498;28;20210;-73
2021/12/18 10:44:24;;;;;;;13.77;11.90;;;12.20;99.90;;;;;;5069837;28;20252;-71
2021/12/18 10:46:54;;;;;;;14.90;12.10;;;9.80;1.00;;;;;;5067569;28;20229;-73
2021/12/18 10:49:22;;;;;;;14.80;11.33;;;8.60;1.00;;;;;;5054553;28;20198;-68
2021/12/18 10:51:50;;;;;;;15.00;11.67;;;8.10;1.00;;;;;;5058472;28;20203;-71
2021/12/18 10:54:21;;;;;;;12.23;10.97;;;7.90;1.00;;;;;;5060241;28;20211;-70
2021/12/18 10:56:51;;;;;;;15.50;11.23;;;7.80;1.00;;;;;;5064374;28;20643;-73
2021/12/18 10:59:23;;;;;;;14.93;13.33;;;7.70;1.00;;;;;;5063346;28;20209;-72
2021/12/18 11:01:53;;;;;;;17.30;12.53;;;7.60;1.00;;;;;;5074625;28;20206;-73
2021/12/18 11:04:25;;;;;;;17.00;11.33;;;7.70;1.00;;;;;;5067715;28;20198;-74
2021/12/18 11:06:52;;;;;;;19.23;11.93;;;7.80;1.00;;;;;;5054502;28;20237;-73
2021/12/18 11:09:28;;;;;;;14.30;12.03;;;8.10;1.00;;;;;;5059130;28;20214;-73
2021/12/18 11:14:42;;;;;;;23.40;17.43;;;8.30;1.00;;;;;;5068706;28;20208;-74
2021/12/18 11:17:14;;;;;;;18.13;13.10;;;8.40;1.00;;;;;;5062665;28;20210;-75
2021/12/18 11:19:43;;;;;;;15.70;12.10;;;8.50;1.00;;;;;;5067158;28;20575;-74
2021/12/18 11:22:12;;;;;;;14.53;11.90;;;8.70;1.00;;;;;;5067484;28;20210;-69
2021/12/18 11:24:43;;;;;;;16.70;11.23;;;8.90;1.00;;;;;;5067148;28;20208;-74
2021/12/18 11:27:12;;;;;;;13.00;11.23;;;9.10;1.00;;;;;;5069669;28;20709;-73
2021/12/18 11:29:44;;;;;;;12.07;10.77;;;9.20;1.00;;;;;;5069371;28;20207;-74
2021/12/18 11:32:15;;;;;;;14.87;9.40;;;9.30;1.00;;;;;;5065530;28;20210;-73
2021/12/18 11:34:43;;;;;;;12.63;10.77;;;9.50;1.00;;;;;;5060617;28;20211;-73
2021/12/18 11:37:12;;;;;;;14.87;10.53;;;9.60;1.00;;;;;;5065564;28;20236;-74
2021/12/18 11:39:41;;;;;;;17.00;10.33;;;9.70;1.00;;;;;;5069349;28;20260;-74
2021/12/18 11:42:09;;;;;;;14.80;10.10;;;9.80;1.00;;;;;;5066207;28;20247;-74
2021/12/18 11:44:38;;;;;;;12.13;9.47;;;9.90;1.00;;;;;;5075818;28;20635;-73
2021/12/18 11:47:28;;;;;;;11.27;9.87;;;9.90;1.00;;;;;;5055298;28;20717;-73
2021/12/18 11:49:58;;;;;;;15.10;11.23;;;10.00;1.00;;;;;;5059907;28;20215;-74
2021/12/18 11:52:25;;;;;;;12.43;10.10;;;10.10;1.00;;;;;;5058372;28;20202;-72
2021/12/18 11:54:55;;;;;;;12.80;9.80;;;10.10;1.00;;;;;;5074554;28;20709;-73
2021/12/18 11:57:43;;;;;;;11.43;10.23;;;10.10;1.00;;;;;;5073716;28;20225;-69
2021/12/18 12:00:43;;;;;;;11.17;9.83;;;10.20;1.00;;;;;;5060140;28;20758;-75
2021/12/18 12:03:13;;;;;;;12.60;11.30;;;10.20;1.00;;;;;;5065909;28;20225;-73
2021/12/18 12:05:43;;;;;;;10.90;9.67;;;10.30;1.00;;;;;;5071975;28;20210;-72
2021/12/18 12:08:25;;;;;;;12.80;10.13;;;10.50;1.00;;;;;;5071723;28;20286;-72
2021/12/18 12:11:18;;;;;;;12.43;11.13;;;10.70;1.00;;;;;;5068049;28;20206;-75
2021/12/18 12:14:03;;;;;;;12.83;9.70;;;10.80;1.00;;;;;;5067395;28;20206;-74
2021/12/18 12:17:03;;;;;;;10.73;9.10;;;11.00;1.00;;;;;;5067758;28;20198;-76
2021/12/18 12:19:59;;;;;;;11.47;9.93;;;11.10;1.00;;;;;;5066308;28;20268;-74
2021/12/18 12:22:53;;;;;;;12.70;9.00;;;11.20;1.00;;;;;;5059434;28;20214;-75
2021/12/18 12:25:39;;;;;;;11.13;8.63;;;11.30;1.00;;;;;;5065110;28;20632;-76
2021/12/18 12:28:08;;;;;;;8.97;7.97;;;11.50;1.00;;;;;;5064546;28;20234;-75
2021/12/18 12:30:43;;;;;;;10.73;7.60;;;11.60;1.00;;;;;;5069977;28;20833;-73
2021/12/18 12:33:13;;;;;;;9.27;6.47;;;11.60;1.00;;;;;;5067817;28;20217;-75
2021/12/18 12:35:58;;;;;;;7.43;5.37;;;11.70;1.00;;;;;;5071109;28;20279;-76
2021/12/18 12:38:27;;;;;;;6.73;5.00;;;12.00;1.00;;;;;;5059908;28;20263;-75
2021/12/18 12:40:56;;;;;;;5.20;4.23;;;12.20;1.00;;;;;;5067808;28;20662;-77
2021/12/18 12:43:27;;;;;;;5.30;3.53;;;12.30;1.00;;;;;;5068112;28;20217;-76
2021/12/18 12:46:00;;;;;;;6.43;4.07;;;12.30;1.00;;;;;;5069756;28;20571;-75
2021/12/18 12:49:03;;;;;;;5.67;3.50;;;12.30;1.00;;;;;;5063622;28;20233;-77
2021/12/18 12:52:05;;;;;;;4.23;3.53;;;12.50;1.00;;;;;;5070859;28;20617;-76
2021/12/18 12:55:00;;;;;;;8.00;3.90;;;12.50;1.00;;;;;;5067697;28;20209;-74
2021/12/18 12:57:39;;;;;;;4.97;3.43;;;12.60;1.00;;;;;;5069714;28;20210;-71
2021/12/18 13:00:55;;;;;;;4.00;3.23;;;12.70;1.00;;;;;;5068476;28;20214;-75
2021/12/18 13:03:33;;;;;;;9.70;4.77;;;12.80;1.00;;;;;;5076702;28;20202;-76
2021/12/18 13:06:09;;;;;;;4.87;3.33;;;12.80;1.00;;;;;;5065006;28;20202;-75
2021/12/18 13:08:40;;;;;;;4.30;3.60;;;13.00;1.00;;;;;;5059357;28;20237;-75
2021/12/18 13:11:10;;;;;;;4.73;4.00;;;12.90;1.00;;;;;;5061906;28;21002;-70
2021/12/18 13:13:37;;;;;;;6.97;3.83;;;12.90;1.00;;;;;;5067311;28;20294;-75
2021/12/18 13:16:10;;;;;;;4.70;3.53;;;13.20;1.00;;;;;;5066820;28;20202;-72
2021/12/18 13:18:41;;;;;;;5.23;3.50;;;13.20;1.00;;;;;;5070702;28;20205;-77
2021/12/18 13:21:10;;;;;;;5.33;3.80;;;13.30;1.00;;;;;;5068875;28;20202;-73
2021/12/18 13:23:45;;;;;;;4.90;2.97;;;13.40;1.00;;;;;;5070074;28;20301;-71
2021/12/18 13:26:14;;;;;;;3.17;2.73;;;13.50;1.00;;;;;;5068018;28;20247;-76
2021/12/18 13:28:53;;;;;;;5.43;2.60;;;13.70;1.00;;;;;;5065618;28;20234;-75
2021/12/18 13:31:22;;;;;;;7.05;2.30;;;13.70;1.00;;;;;;5064688;28;20840;-76
2021/12/18 13:33:59;;;;;;;2.00;1.57;;;13.70;1.00;;;;;;5069316;28;20206;-74